createdAt,value
2022-08-03T00:00:36.742Z,1.83
2022-08-03T00:03:05.505Z,1.83
2022-08-03T00:05:33.986Z,2.65
2022-08-03T00:08:02.569Z,2.35
2022-08-03T00:10:32.083Z,2.28
2022-08-03T00:13:02.584Z,2.30
2022-08-03T00:15:34.408Z,2.10
2022-08-03T00:18:10.076Z,2.15
2022-08-03T00:20:39.567Z,2.53
2022-08-03T00:23:08.809Z,2.30
2022-08-03T00:25:39.155Z,2.10
2022-08-03T00:28:09.763Z,2.50
2022-08-03T00:30:38.625Z,2.58
2022-08-03T00:33:10.286Z,2.28
2022-08-03T00:35:51.034Z,2.92
2022-08-03T00:38:19.329Z,2.42
2022-08-03T00:40:48.824Z,2.78
2022-08-03T00:43:17.304Z,1.92
2022-08-03T00:45:45.490Z,2.92
2022-08-03T00:48:32.899Z,2.95
2022-08-03T00:51:02.083Z,2.25
2022-08-03T00:53:30.360Z,3.05
2022-08-03T00:56:00.362Z,2.65
2022-08-03T00:58:28.589Z,2.60
2022-08-03T01:00:56.704Z,2.50
2022-08-03T01:03:25.012Z,2.30
2022-08-03T01:05:57.039Z,3.45
2022-08-03T01:08:47.286Z,2.45
2022-08-03T01:11:25.230Z,2.92
2022-08-03T01:14:18.094Z,2.58
2022-08-03T01:19:39.980Z,2.60
2022-08-03T01:22:25.072Z,2.40
2022-08-03T01:25:03.947Z,2.08
2022-08-03T01:27:44.511Z,2.17
2022-08-03T01:30:14.248Z,2.30
2022-08-03T01:32:53.579Z,1.77
2022-08-03T01:35:38.540Z,2.13
2022-08-03T01:38:12.618Z,2.42
2022-08-03T01:40:42.627Z,2.65
2022-08-03T01:43:13.288Z,1.95
2022-08-03T01:45:45.828Z,2.00
2022-08-03T01:48:17.190Z,1.90
2022-08-03T01:50:47.508Z,2.55
2022-08-03T01:53:18.878Z,2.17
2022-08-03T01:55:48.407Z,1.90
2022-08-03T01:58:22.778Z,1.88
2022-08-03T02:00:54.910Z,1.98
2022-08-03T02:03:28.352Z,2.00
2022-08-03T02:06:40.966Z,2.03
2022-08-03T02:08:52.454Z,1.80
2022-08-03T02:11:23.105Z,2.22
2022-08-03T02:13:52.758Z,2.13
2022-08-03T02:16:23.413Z,2.10
2022-08-03T02:18:52.704Z,1.77
2022-08-03T02:21:56.965Z,1.58
2022-08-03T02:24:12.272Z,2.28
2022-08-03T02:26:42.812Z,2.05
2022-08-03T02:29:18.424Z,2.05
2022-08-03T02:31:50.383Z,1.63
2022-08-03T02:34:22.332Z,1.90
2022-08-03T02:36:55.317Z,2.47
2022-08-03T02:39:32.039Z,1.85
2022-08-03T02:42:05.165Z,1.77
2022-08-03T02:44:37.057Z,2.83
2022-08-03T02:47:13.208Z,2.00
2022-08-03T02:49:50.584Z,1.90
2022-08-03T02:52:23.679Z,1.85
2022-08-03T02:54:56.470Z,1.90
2022-08-03T02:57:29.837Z,1.95
2022-08-03T03:00:02.678Z,2.20
2022-08-03T03:02:34.029Z,2.22
2022-08-03T03:05:55.893Z,1.55
2022-08-03T03:07:56.629Z,2.03
2022-08-03T03:10:28.698Z,2.53
2022-08-03T03:13:01.659Z,2.00
2022-08-03T03:15:32.979Z,2.30
2022-08-03T03:18:06.978Z,2.95
2022-08-03T03:20:35.883Z,2.25
2022-08-03T03:23:07.023Z,1.98
2022-08-03T03:25:38.031Z,2.10
2022-08-03T03:28:08.864Z,2.38
2022-08-03T03:30:39.898Z,2.05
2022-08-03T03:33:09.852Z,1.95
2022-08-03T03:35:39.220Z,2.22
2022-08-03T03:38:08.129Z,1.92
2022-08-03T03:40:36.724Z,2.35
2022-08-03T03:43:08.054Z,2.33
2022-08-03T03:45:36.729Z,2.05
2022-08-03T03:48:06.140Z,2.60
2022-08-03T03:50:37.625Z,3.22
2022-08-03T03:53:05.993Z,2.13
2022-08-03T03:55:37.453Z,2.65
2022-08-03T03:58:25.326Z,2.70
2022-08-03T04:00:53.928Z,2.25
2022-08-03T04:03:22.338Z,2.47
2022-08-03T04:06:09.706Z,2.25
2022-08-03T04:08:55.132Z,2.40
2022-08-03T04:11:29.073Z,2.38
2022-08-03T04:14:02.218Z,2.13
2022-08-03T04:16:33.587Z,2.80
2022-08-03T04:19:06.070Z,2.72
2022-08-03T04:21:38.474Z,2.30
2022-08-03T04:24:10.913Z,2.70
2022-08-03T04:26:42.701Z,2.75
2022-08-03T04:29:12.745Z,2.40
2022-08-03T04:31:43.084Z,2.30
2022-08-03T04:34:11.519Z,2.47
2022-08-03T04:36:49.151Z,2.95
2022-08-03T04:39:21.353Z,2.17
2022-08-03T04:42:07.535Z,2.17
2022-08-03T04:44:38.783Z,3.13
2022-08-03T04:47:07.009Z,2.67
2022-08-03T04:49:37.605Z,2.35
2022-08-03T04:52:09.932Z,2.53
2022-08-03T04:54:41.528Z,2.45
2022-08-03T04:57:09.663Z,2.47
2022-08-03T04:59:39.143Z,3.42
2022-08-03T05:02:09.573Z,2.33
2022-08-03T05:04:38.077Z,2.70
2022-08-03T05:07:12.231Z,3.20
2022-08-03T05:09:52.281Z,2.75
2022-08-03T05:12:20.539Z,2.55
2022-08-03T05:14:48.606Z,2.55
2022-08-03T05:17:16.648Z,2.10
2022-08-03T05:19:45.084Z,2.75
2022-08-03T05:22:14.603Z,3.10
2022-08-03T05:24:42.999Z,2.72
2022-08-03T05:27:17.543Z,3.28
2022-08-03T05:29:46.563Z,2.80
2022-08-03T05:32:15.132Z,2.63
2022-08-03T05:34:48.925Z,2.97
2022-08-03T05:37:21.807Z,2.35
2022-08-03T05:39:52.653Z,3.67
2022-08-03T05:42:21.899Z,3.00
2022-08-03T05:44:52.918Z,3.40
2022-08-03T05:47:28.409Z,2.92
2022-08-03T05:50:00.073Z,3.47
2022-08-03T05:52:30.333Z,3.10
2022-08-03T05:55:00.379Z,3.08
2022-08-03T05:57:30.951Z,2.83
2022-08-03T05:59:59.867Z,3.50
2022-08-03T06:02:30.572Z,3.13
2022-08-03T06:05:01.196Z,3.08
2022-08-03T06:07:32.855Z,3.20
2022-08-03T06:10:36.062Z,3.20
2022-08-03T06:12:56.925Z,3.08
2022-08-03T06:15:28.036Z,3.13
2022-08-03T06:18:02.033Z,3.15
2022-08-03T06:20:34.309Z,2.95
2022-08-03T06:23:08.172Z,2.97
2022-08-03T06:25:45.368Z,4.05
2022-08-03T06:28:42.677Z,22.38
2022-08-03T06:31:07.548Z,14.93
2022-08-03T06:34:30.602Z,3.60
2022-08-03T06:36:24.326Z,3.03
2022-08-03T06:38:56.316Z,3.63
2022-08-03T06:41:25.607Z,3.58
2022-08-03T06:44:03.229Z,3.08
2022-08-03T06:46:36.020Z,3.40
2022-08-03T06:49:07.436Z,4.22
2022-08-03T06:52:03.249Z,2.90
2022-08-03T06:54:27.753Z,3.55
2022-08-03T06:56:57.588Z,3.35
2022-08-03T07:00:07.550Z,3.78
2022-08-03T07:02:20.117Z,3.88
2022-08-03T07:04:49.109Z,3.40
2022-08-03T07:07:19.753Z,4.13
2022-08-03T07:09:56.504Z,2.78
2022-08-03T07:12:33.955Z,3.00
2022-08-03T07:15:05.700Z,3.30
2022-08-03T07:17:36.914Z,3.80
2022-08-03T07:20:08.074Z,3.08
2022-08-03T07:22:38.718Z,3.90
2022-08-03T07:25:11.602Z,3.45
2022-08-03T07:30:22.044Z,3.13
2022-08-03T07:32:50.966Z,3.33
2022-08-03T07:35:25.057Z,3.40
2022-08-03T07:37:54.469Z,2.90
2022-08-03T07:40:25.122Z,3.15
2022-08-03T07:42:59.281Z,2.90
2022-08-03T07:45:27.708Z,3.28
2022-08-03T07:47:55.805Z,3.63
2022-08-03T07:50:24.427Z,3.28
2022-08-03T07:52:53.739Z,3.00
2022-08-03T07:55:23.361Z,2.95
2022-08-03T07:58:03.029Z,3.15
2022-08-03T08:00:31.568Z,3.47
2022-08-03T08:02:59.650Z,3.42
2022-08-03T08:05:28.334Z,3.13
2022-08-03T08:07:56.445Z,3.50
2022-08-03T08:10:24.672Z,2.88
2022-08-03T08:12:53.049Z,3.88
2022-08-03T08:15:22.740Z,3.63
2022-08-03T08:17:53.657Z,3.83
2022-08-03T08:20:30.843Z,3.65
2022-08-03T08:23:01.170Z,3.45
2022-08-03T08:25:30.687Z,3.35
2022-08-03T08:28:29.785Z,3.65
2022-08-03T08:30:51.460Z,3.65
2022-08-03T08:33:23.555Z,4.15
2022-08-03T08:35:54.447Z,3.03
2022-08-03T08:38:25.672Z,3.22
2022-08-03T08:40:57.888Z,3.47
2022-08-03T08:43:31.256Z,3.92
2022-08-03T08:46:01.760Z,3.55
2022-08-03T08:48:33.829Z,4.13
2022-08-03T08:51:06.118Z,3.05
2022-08-03T08:53:41.176Z,3.60
2022-08-03T08:56:12.975Z,5.40
2022-08-03T08:58:47.154Z,4.45
2022-08-03T09:01:20.560Z,4.55
2022-08-03T09:03:51.034Z,3.45
2022-08-03T09:06:20.588Z,4.47
2022-08-03T09:08:51.424Z,5.25
2022-08-03T09:11:57.760Z,4.43
2022-08-03T09:14:36.961Z,4.25
2022-08-03T09:17:08.307Z,3.60
2022-08-03T09:20:09.426Z,4.20
2022-08-03T09:22:53.240Z,4.13
2022-08-03T09:25:27.334Z,3.28
2022-08-03T09:27:58.457Z,3.65
2022-08-03T09:30:34.715Z,3.40
2022-08-03T09:33:08.131Z,3.33
2022-08-03T09:35:58.268Z,3.65
2022-08-03T09:38:30.452Z,3.55
2022-08-03T09:41:00.777Z,3.45
2022-08-03T09:43:48.199Z,3.63
2022-08-03T09:46:20.297Z,4.15
2022-08-03T09:48:54.270Z,4.20
2022-08-03T09:52:28.800Z,4.00
2022-08-03T09:54:30.878Z,3.90
2022-08-03T09:57:02.318Z,3.70
2022-08-03T09:59:34.500Z,3.80
2022-08-03T10:02:05.664Z,4.20
2022-08-03T10:04:49.432Z,4.22
2022-08-03T10:07:21.314Z,3.72
2022-08-03T10:10:31.200Z,3.88
2022-08-03T10:12:55.683Z,4.30
2022-08-03T10:16:25.185Z,4.80
2022-08-03T10:18:18.953Z,3.75
2022-08-03T10:20:54.623Z,3.50
2022-08-03T10:23:26.212Z,4.68
2022-08-03T10:26:04.709Z,3.70
2022-08-03T10:28:44.815Z,4.38
2022-08-03T10:31:17.186Z,3.95
2022-08-03T10:33:53.190Z,3.85
2022-08-03T10:36:25.029Z,3.72
2022-08-03T10:38:55.375Z,3.63
2022-08-03T10:41:27.913Z,3.63
2022-08-03T10:44:03.306Z,3.73
2022-08-03T10:46:32.336Z,3.80
2022-08-03T10:49:02.808Z,3.92
2022-08-03T10:51:34.399Z,3.28
2022-08-03T10:54:04.574Z,3.22
2022-08-03T10:57:10.966Z,3.22
2022-08-03T11:00:08.093Z,3.70
2022-08-03T11:03:04.847Z,3.67
2022-08-03T11:05:37.397Z,4.05
2022-08-03T11:08:38.150Z,3.83
2022-08-03T11:11:31.945Z,4.43
2022-08-03T11:16:35.616Z,3.58
2022-08-03T11:19:07.768Z,4.35
2022-08-03T11:21:56.862Z,5.07
2022-08-03T11:25:05.579Z,4.75
2022-08-03T11:27:38.182Z,4.50
2022-08-03T11:30:12.385Z,5.07
2022-08-03T11:33:01.864Z,4.47
2022-08-03T11:35:36.787Z,5.75
2022-08-03T11:38:13.150Z,4.68
2022-08-03T11:40:49.538Z,5.10
2022-08-03T11:43:49.391Z,4.88
2022-08-03T11:46:29.798Z,5.20
2022-08-03T11:49:10.991Z,4.43
2022-08-03T11:51:42.283Z,4.43
2022-08-03T11:54:13.629Z,5.18
2022-08-03T11:56:51.473Z,5.13
2022-08-03T11:59:34.326Z,5.03
2022-08-03T12:02:09.564Z,6.00
2022-08-03T12:04:53.229Z,5.70
2022-08-03T12:07:24.411Z,5.20
2022-08-03T12:10:16.793Z,5.15
2022-08-03T12:12:48.173Z,5.20
2022-08-03T12:15:18.171Z,5.80
2022-08-03T12:17:49.774Z,4.20
2022-08-03T12:20:31.284Z,5.47
2022-08-03T12:23:07.758Z,4.95
2022-08-03T12:25:39.589Z,4.68
2022-08-03T12:28:36.479Z,5.38
2022-08-03T12:31:12.405Z,4.53
2022-08-03T12:33:59.161Z,4.95
2022-08-03T12:36:28.554Z,4.10
2022-08-03T12:38:57.917Z,5.00
2022-08-03T12:41:31.025Z,3.83
2022-08-03T12:46:32.955Z,4.05
2022-08-03T12:49:03.553Z,4.53
2022-08-03T12:51:34.350Z,4.57
2022-08-03T12:54:03.018Z,4.63
2022-08-03T12:56:31.199Z,4.22
2022-08-03T12:59:00.509Z,5.07
2022-08-03T13:01:37.960Z,5.78
2022-08-03T13:04:33.207Z,5.07
2022-08-03T13:07:03.614Z,4.93
2022-08-03T13:09:41.752Z,5.45
2022-08-03T13:12:11.817Z,5.53
2022-08-03T13:14:41.624Z,6.38
2022-08-03T13:17:09.887Z,5.40
2022-08-03T13:19:38.628Z,5.22
2022-08-03T13:22:14.447Z,4.57
2022-08-03T13:24:43.619Z,4.07
2022-08-03T13:28:12.469Z,4.50
2022-08-03T13:30:01.914Z,4.28
2022-08-03T13:32:29.949Z,3.85
2022-08-03T13:35:00.984Z,4.45
2022-08-03T13:40:04.826Z,4.32
2022-08-03T13:42:35.856Z,4.38
2022-08-03T13:45:06.708Z,3.97
2022-08-03T13:47:34.878Z,4.70
2022-08-03T13:50:03.337Z,3.72
2022-08-03T13:52:33.706Z,3.75
2022-08-03T13:55:02.366Z,4.30
2022-08-03T13:58:04.031Z,3.15
2022-08-03T14:00:27.226Z,3.53
2022-08-03T14:03:02.809Z,3.35
2022-08-03T14:05:34.077Z,3.35
2022-08-03T14:08:04.737Z,4.35
2022-08-03T14:10:34.736Z,3.90
2022-08-03T14:13:02.972Z,3.80
2022-08-03T14:15:37.879Z,2.88
2022-08-03T14:18:15.702Z,3.45
2022-08-03T14:20:56.793Z,2.97
2022-08-03T14:23:26.422Z,3.22
2022-08-03T14:25:55.490Z,4.03
2022-08-03T14:28:24.525Z,3.55
2022-08-03T14:30:56.056Z,4.38
2022-08-03T14:33:24.689Z,4.30
2022-08-03T14:35:53.308Z,3.55
2022-08-03T14:38:22.324Z,4.30
2022-08-03T14:40:51.628Z,3.55
2022-08-03T14:43:21.327Z,3.58
2022-08-03T14:45:52.197Z,3.92
2022-08-03T14:50:30.491Z,4.15
2022-08-03T14:51:10.268Z,5.20
2022-08-03T14:53:38.231Z,3.58
2022-08-03T14:56:10.366Z,3.88
2022-08-03T14:58:39.367Z,3.55
2022-08-03T15:02:03.057Z,4.35
2022-08-03T15:03:58.112Z,3.13
2022-08-03T15:06:26.085Z,3.10
2022-08-03T15:09:21.515Z,2.65
2022-08-03T15:11:44.854Z,2.80
2022-08-03T15:14:15.545Z,3.42
2022-08-03T15:16:46.192Z,3.47
2022-08-03T15:20:01.173Z,2.95
2022-08-03T15:22:09.082Z,2.45
2022-08-03T15:24:38.602Z,2.97
2022-08-03T15:27:10.366Z,2.50
2022-08-03T15:30:07.758Z,3.55
2022-08-03T15:32:33.999Z,3.58
2022-08-03T15:35:05.271Z,2.95
2022-08-03T15:37:33.361Z,3.25
2022-08-03T15:40:05.456Z,3.15
2022-08-03T15:42:34.563Z,2.58
2022-08-03T15:45:02.990Z,3.08
2022-08-03T15:47:31.210Z,2.67
2022-08-03T15:49:59.141Z,2.80
2022-08-03T15:52:28.873Z,3.05
2022-08-03T15:54:56.842Z,2.97
2022-08-03T15:57:24.924Z,2.78
2022-08-03T15:59:53.155Z,2.70
2022-08-03T16:02:21.425Z,2.17
2022-08-03T16:04:49.359Z,2.92
2022-08-03T16:07:37.576Z,2.20
2022-08-03T16:10:08.350Z,2.80
2022-08-03T16:12:39.228Z,2.58
2022-08-03T16:15:12.251Z,3.47
2022-08-03T16:20:31.352Z,2.78
2022-08-03T16:23:11.390Z,2.30
2022-08-03T16:25:49.176Z,2.50
2022-08-03T16:28:21.936Z,3.67
2022-08-03T16:30:51.265Z,3.22
2022-08-03T16:33:21.671Z,2.42
2022-08-03T16:35:54.132Z,2.85
2022-08-03T16:38:24.942Z,3.00
2022-08-03T16:40:56.388Z,2.63
2022-08-03T16:43:27.752Z,3.00
2022-08-03T16:45:57.533Z,3.03
2022-08-03T16:48:29.080Z,2.92
2022-08-03T16:50:58.996Z,2.58
2022-08-03T16:53:33.732Z,2.70
2022-08-03T16:56:25.178Z,3.05
2022-08-03T16:58:57.168Z,2.70
2022-08-03T17:01:35.671Z,2.33
2022-08-03T17:04:12.110Z,2.80
2022-08-03T17:06:46.411Z,2.72
2022-08-03T17:09:20.768Z,2.67
2022-08-03T17:11:52.479Z,3.13
2022-08-03T17:14:29.327Z,2.55
2022-08-03T17:17:01.588Z,2.30
2022-08-03T17:19:33.096Z,3.45
2022-08-03T17:22:10.607Z,2.63
2022-08-03T17:24:42.577Z,3.10
2022-08-03T17:28:41.875Z,2.47
2022-08-03T17:30:13.505Z,2.58
2022-08-03T17:32:57.119Z,2.25
2022-08-03T17:35:36.709Z,2.67
2022-08-03T17:38:12.078Z,2.08
2022-08-03T17:40:50.220Z,2.25
2022-08-03T17:44:13.511Z,1.98
2022-08-03T17:46:16.903Z,2.60
2022-08-03T17:48:50.612Z,2.65
2022-08-03T17:51:29.110Z,2.88
2022-08-03T17:54:18.336Z,3.22
2022-08-03T17:56:58.921Z,4.82
2022-08-03T18:00:02.762Z,4.45
2022-08-03T18:03:03.838Z,6.35
2022-08-03T18:06:11.533Z,8.02
2022-08-03T18:11:03.363Z,9.70
2022-08-03T18:13:45.275Z,8.88
2022-08-03T18:16:35.659Z,5.88
2022-08-03T18:19:14.267Z,4.05
2022-08-03T18:22:02.766Z,3.60
2022-08-03T18:24:34.732Z,3.55
2022-08-03T18:27:12.975Z,3.40
2022-08-03T18:32:19.682Z,3.67
2022-08-03T18:34:53.489Z,3.35
2022-08-03T18:37:25.431Z,3.40
2022-08-03T18:39:57.949Z,3.13
2022-08-03T18:42:27.064Z,3.60
2022-08-03T18:44:56.743Z,3.65
2022-08-03T18:47:50.654Z,4.18
2022-08-03T18:50:29.472Z,6.53
2022-08-03T18:53:19.452Z,43.58
2022-08-03T18:56:02.309Z,52.10
2022-08-03T18:58:38.775Z,16.40
2022-08-03T19:01:59.875Z,21.42
2022-08-03T19:04:12.625Z,22.73
2022-08-03T19:06:45.011Z,13.63
2022-08-03T19:09:20.726Z,13.95
2022-08-03T19:12:13.303Z,13.07
2022-08-03T19:14:48.298Z,10.50
2022-08-03T19:17:21.377Z,8.63
2022-08-03T19:19:52.935Z,7.85
2022-08-03T19:22:22.368Z,5.68
2022-08-03T19:24:55.190Z,5.03
2022-08-03T19:27:26.921Z,6.47
2022-08-03T19:30:01.236Z,8.25
2022-08-03T19:32:33.593Z,9.32
2022-08-03T19:35:05.224Z,9.73
2022-08-03T19:37:42.098Z,8.45
2022-08-03T19:40:12.443Z,9.80
2022-08-03T19:42:46.393Z,7.85
2022-08-03T19:45:22.330Z,5.88
2022-08-03T19:48:14.366Z,9.02
2022-08-03T19:50:44.893Z,14.02
2022-08-03T19:53:14.129Z,13.27
2022-08-03T19:55:48.801Z,14.98
2022-08-03T19:58:28.760Z,12.73
2022-08-03T20:00:57.627Z,13.70
2022-08-03T20:03:28.012Z,13.10
2022-08-03T20:06:17.040Z,11.82
2022-08-03T20:08:45.159Z,12.18
2022-08-03T20:11:16.908Z,8.75
2022-08-03T20:13:48.261Z,16.02
2022-08-03T20:16:16.766Z,17.40
2022-08-03T20:18:45.584Z,18.35
2022-08-03T20:21:18.920Z,21.88
2022-08-03T20:24:01.789Z,28.20
2022-08-03T20:26:33.556Z,29.88
2022-08-03T20:29:09.107Z,29.95
2022-08-03T20:31:38.622Z,34.58
2022-08-03T20:34:09.123Z,33.28
2022-08-03T20:36:38.675Z,31.33
2022-08-03T20:39:07.705Z,8.60
2022-08-03T20:41:37.109Z,20.30
2022-08-03T20:44:06.826Z,19.13
2022-08-03T20:46:50.231Z,12.55
2022-08-03T20:49:23.861Z,9.48
2022-08-03T20:51:53.945Z,14.32
2022-08-03T20:54:30.664Z,13.52
2022-08-03T20:57:03.577Z,10.00
2022-08-03T20:59:46.734Z,8.95
2022-08-03T21:02:19.870Z,9.45
2022-08-03T21:04:57.475Z,9.95
2022-08-03T21:08:05.368Z,11.07
2022-08-03T21:10:18.101Z,11.40
2022-08-03T21:12:52.724Z,8.38
2022-08-03T21:16:06.547Z,9.70
2022-08-03T21:18:15.580Z,8.27
2022-08-03T21:20:47.346Z,6.28
2022-08-03T21:23:35.127Z,6.28
2022-08-03T21:26:09.206Z,6.63
2022-08-03T21:28:39.115Z,5.75
2022-08-03T21:31:08.542Z,6.75
2022-08-03T21:33:37.049Z,9.05
2022-08-03T21:36:07.861Z,6.40
2022-08-03T21:38:55.723Z,17.08
2022-08-03T21:41:29.018Z,12.60
2022-08-03T21:44:00.255Z,8.15
2022-08-03T21:46:34.514Z,4.90
2022-08-03T21:50:05.026Z,5.15
2022-08-03T21:52:01.214Z,5.20
2022-08-03T21:54:39.588Z,5.70
2022-08-03T21:57:17.863Z,3.90
2022-08-03T21:59:57.101Z,4.15
2022-08-03T22:02:31.531Z,3.88
2022-08-03T22:05:04.899Z,4.07
2022-08-03T22:07:39.286Z,3.83
2022-08-03T22:10:12.664Z,3.70
2022-08-03T22:12:46.856Z,3.53
2022-08-03T22:15:16.343Z,4.63
2022-08-03T22:17:54.748Z,3.38
2022-08-03T22:20:29.348Z,3.30
2022-08-03T22:23:09.872Z,5.32
2022-08-03T22:25:42.927Z,3.97
2022-08-03T22:28:16.705Z,3.90
2022-08-03T22:30:47.774Z,3.65
2022-08-03T22:33:19.104Z,3.13
2022-08-03T22:35:52.574Z,3.72
2022-08-03T22:38:22.389Z,3.55
2022-08-03T22:40:53.464Z,3.58
2022-08-03T22:43:26.310Z,3.22
2022-08-03T22:46:09.160Z,3.65
2022-08-03T22:48:42.833Z,3.00
2022-08-03T22:51:13.939Z,2.85
2022-08-03T22:53:47.000Z,3.47
2022-08-03T22:56:20.829Z,4.28
2022-08-03T22:58:53.100Z,3.65
2022-08-03T23:01:27.037Z,2.88
2022-08-03T23:04:06.057Z,3.63
2022-08-03T23:06:39.849Z,3.03
2022-08-03T23:09:12.159Z,2.60
2022-08-03T23:11:47.957Z,2.85
2022-08-03T23:14:21.798Z,3.20
2022-08-03T23:16:58.221Z,3.88
2022-08-03T23:19:30.220Z,3.08
2022-08-03T23:22:05.866Z,3.00
2022-08-03T23:24:38.597Z,3.58
2022-08-03T23:27:14.119Z,3.33
2022-08-03T23:29:46.993Z,3.20
2022-08-03T23:32:19.128Z,3.17
2022-08-03T23:35:09.559Z,3.47
2022-08-03T23:38:21.634Z,3.30
2022-08-03T23:40:31.069Z,3.38
2022-08-03T23:43:03.081Z,2.70
2022-08-03T23:45:35.722Z,2.70
2022-08-03T23:48:03.877Z,3.20
2022-08-03T23:50:42.462Z,3.20
2022-08-03T23:53:17.980Z,3.45
2022-08-03T23:56:02.042Z,3.92
2022-08-03T23:58:44.986Z,4.25
